Terminal Aerodrome Forecast
Issued by NWS

Home | Current Version | Previous Version | Text Only | Print | Product List | Glossary On
Versions: 1 2 3 4 5 6 7 8 9 10 11 12 13 14 15 16 17
000
FTUS44 KEPZ 041700
TAFLRU
TAF
KLRU 041739Z 0418/0518 24012KT P6SM SCT060
     FM042000 25012G23KT P6SM VCTS SCT060CB BKN080
     FM042300 32015G25KT P6SM VCTS SCT060CB BKN070
     FM050300 03008KT P6SM SCT040 SCT100
     FM050800 15012KT P6SM SCT030 SCT080=

USA.gov is the U.S. government's official web portal to all federal, state and local government web resources and services.